createdAt,value
2018-08-30T00:00:29.502Z,12
2018-08-30T00:05:31.956Z,11
2018-08-30T00:10:34.501Z,11
2018-08-30T00:15:36.922Z,11
2018-08-30T00:20:39.484Z,12
2018-08-30T00:30:44.434Z,11
2018-08-30T00:35:46.916Z,12
2018-08-30T00:40:49.404Z,12
2018-08-30T00:45:51.769Z,11
2018-08-30T00:50:54.107Z,12
2018-08-30T00:55:56.533Z,13
2018-08-30T01:00:59.018Z,13
2018-08-30T01:06:01.722Z,13
2018-08-30T01:11:03.922Z,12
2018-08-30T01:16:06.382Z,14
2018-08-30T01:21:08.836Z,12
2018-08-30T01:26:11.554Z,13
2018-08-30T01:36:16.220Z,13
2018-08-30T01:41:18.895Z,12
2018-08-30T01:46:21.120Z,13
2018-08-30T01:51:23.640Z,13
2018-08-30T01:56:26.073Z,13
2018-08-30T02:01:28.501Z,13
2018-08-30T02:06:31.058Z,12
2018-08-30T02:11:33.482Z,11
2018-08-30T02:16:35.956Z,12
2018-08-30T02:21:38.482Z,13
2018-08-30T02:26:40.792Z,11
2018-08-30T02:31:43.287Z,11
2018-08-30T02:36:45.853Z,11
2018-08-30T02:41:48.160Z,12
2018-08-30T02:46:50.755Z,10
2018-08-30T02:51:53.080Z,10
2018-08-30T03:01:58.226Z,11
2018-08-30T03:07:00.820Z,12
2018-08-30T03:12:03.937Z,13
2018-08-30T03:17:05.796Z,14
2018-08-30T03:22:08.145Z,12
2018-08-30T03:27:11.445Z,11
2018-08-30T03:32:12.928Z,11
2018-08-30T03:37:15.213Z,13
2018-08-30T03:42:17.651Z,9
2018-08-30T03:47:20.418Z,9
2018-08-30T03:52:22.580Z,9
2018-08-30T03:57:25.116Z,9
2018-08-30T04:02:28.598Z,8
2018-08-30T04:07:30.058Z,9
2018-08-30T04:17:34.894Z,9
2018-08-30T04:22:37.325Z,9
2018-08-30T04:27:39.902Z,7
2018-08-30T04:32:42.238Z,8
2018-08-30T04:37:44.698Z,6
2018-08-30T04:42:47.209Z,6
2018-08-30T04:47:49.896Z,6
2018-08-30T04:52:52.092Z,6
2018-08-30T04:57:54.544Z,5
2018-08-30T05:02:57.096Z,6
2018-08-30T05:07:59.788Z,5
2018-08-30T05:13:02.018Z,5
2018-08-30T05:18:04.384Z,5
2018-08-30T05:23:06.908Z,4
2018-08-30T05:28:09.287Z,4
2018-08-30T05:33:11.745Z,4
2018-08-30T05:38:14.580Z,4
2018-08-30T05:43:16.761Z,4
2018-08-30T05:48:19.115Z,4
2018-08-30T05:53:21.593Z,5
2018-08-30T05:58:24.129Z,5
2018-08-30T06:03:26.489Z,5
2018-08-30T06:08:29.145Z,5
2018-08-30T06:13:31.447Z,4
2018-08-30T06:18:33.862Z,5
2018-08-30T06:23:36.334Z,6
2018-08-30T06:28:38.783Z,7
2018-08-30T06:33:41.252Z,5
2018-08-30T06:38:43.727Z,5
2018-08-30T06:43:46.199Z,5
2018-08-30T06:48:48.834Z,5
2018-08-30T06:53:51.087Z,5
2018-08-30T06:58:53.540Z,4
2018-08-30T07:03:56.134Z,4
2018-08-30T07:08:58.559Z,5
2018-08-30T07:14:00.908Z,4
2018-08-30T07:19:03.405Z,4
2018-08-30T07:24:05.878Z,3
2018-08-30T07:29:08.340Z,2
2018-08-30T07:34:11.181Z,1
2018-08-30T07:39:13.215Z,1
2018-08-30T07:44:15.801Z,6
2018-08-30T07:49:18.179Z,11
2018-08-30T07:54:20.657Z,13
2018-08-30T07:59:23.102Z,15
2018-08-30T08:04:25.647Z,15
2018-08-30T08:09:28.125Z,17
2018-08-30T08:14:30.501Z,16
2018-08-30T08:19:32.932Z,16
2018-08-30T08:24:35.349Z,17
2018-08-30T08:29:38.391Z,18
2018-08-30T08:34:40.715Z,19
2018-08-30T08:44:45.327Z,20
2018-08-30T08:49:47.710Z,20
2018-08-30T08:54:50.123Z,19
2018-08-30T08:59:52.560Z,18
2018-08-30T09:04:55.125Z,19
2018-08-30T09:09:57.465Z,19
2018-08-30T09:20:02.385Z,18
2018-08-30T09:25:04.829Z,19
2018-08-30T09:30:07.334Z,17
2018-08-30T09:35:09.767Z,18
2018-08-30T09:40:13.155Z,17
2018-08-30T09:45:14.726Z,17
2018-08-30T09:50:17.344Z,18
2018-08-30T09:55:19.635Z,18
2018-08-30T10:00:22.455Z,17
2018-08-30T10:05:24.549Z,17
2018-08-30T10:10:27.057Z,17
2018-08-30T10:15:29.433Z,17
2018-08-30T10:20:31.871Z,15
2018-08-30T10:25:34.364Z,16
2018-08-30T10:30:36.824Z,15
2018-08-30T10:35:39.303Z,16
2018-08-30T10:40:41.745Z,14
2018-08-30T10:45:44.189Z,12
2018-08-30T10:50:46.620Z,12
2018-08-30T10:55:49.290Z,12
2018-08-30T11:00:51.840Z,11
2018-08-30T11:05:54.020Z,8
2018-08-30T11:15:59.022Z,6
2018-08-30T11:21:01.513Z,6
2018-08-30T11:26:03.938Z,7
2018-08-30T11:31:06.320Z,6
2018-08-30T11:36:08.805Z,6
2018-08-30T11:41:12.674Z,5
2018-08-30T11:46:13.655Z,4
2018-08-30T11:51:16.286Z,5
2018-08-30T11:56:19.118Z,4
2018-08-30T12:01:21.112Z,5
2018-08-30T12:06:23.518Z,4
2018-08-30T12:11:26.259Z,5
2018-08-30T12:16:28.758Z,4
2018-08-30T12:21:30.906Z,5
2018-08-30T12:26:33.340Z,5
2018-08-30T12:31:36.304Z,4
2018-08-30T12:36:38.333Z,4
2018-08-30T12:41:40.970Z,3
2018-08-30T12:46:43.299Z,3
2018-08-30T12:51:46.783Z,3
2018-08-30T12:56:48.515Z,2
2018-08-30T13:01:50.818Z,2
2018-08-30T13:06:53.203Z,2
2018-08-30T13:11:56.040Z,2
2018-08-30T13:16:58.356Z,3
2018-08-30T13:22:01.066Z,2
2018-08-30T13:27:03.277Z,2
2018-08-30T13:32:05.895Z,3
2018-08-30T13:37:08.391Z,3
2018-08-30T13:42:11.434Z,3
2018-08-30T13:47:13.031Z,4
2018-08-30T13:52:15.671Z,4
2018-08-30T13:57:18.000Z,6
2018-08-30T14:02:20.893Z,6
2018-08-30T14:07:22.755Z,6
2018-08-30T14:12:25.572Z,5
2018-08-30T14:17:27.409Z,5
2018-08-30T14:22:29.991Z,5
2018-08-30T14:27:32.430Z,5
2018-08-30T14:32:34.806Z,5
2018-08-30T14:37:37.315Z,6
2018-08-30T14:42:40.128Z,6
2018-08-30T14:47:42.394Z,5
2018-08-30T14:52:44.634Z,6
2018-08-30T14:57:47.111Z,6
2018-08-30T15:02:49.665Z,7
2018-08-30T15:07:52.947Z,7
2018-08-30T15:12:54.602Z,6
2018-08-30T15:17:57.006Z,7
2018-08-30T15:22:59.500Z,8
2018-08-30T15:28:01.856Z,7
2018-08-30T15:33:04.457Z,6
2018-08-30T15:38:06.814Z,7
2018-08-30T15:43:09.214Z,8
2018-08-30T15:48:11.751Z,9
2018-08-30T15:53:14.355Z,9
2018-08-30T15:58:16.632Z,8
2018-08-30T16:03:19.045Z,9
2018-08-30T16:08:21.894Z,10
2018-08-30T16:13:23.962Z,10
2018-08-30T16:18:26.709Z,11
2018-08-30T16:23:28.871Z,12
2018-08-30T16:28:31.432Z,12
2018-08-30T16:33:33.845Z,12
2018-08-30T16:38:36.259Z,12
2018-08-30T16:43:38.866Z,13
2018-08-30T16:48:41.252Z,12
2018-08-30T16:53:44.635Z,12
2018-08-30T16:58:46.228Z,13
2018-08-30T17:03:48.608Z,13
2018-08-30T17:08:51.051Z,13
2018-08-30T17:13:53.488Z,13
2018-08-30T17:18:56.010Z,16
2018-08-30T17:23:58.397Z,14
2018-08-30T17:29:00.868Z,14
2018-08-30T17:39:05.760Z,13
2018-08-30T17:44:08.210Z,17
2018-08-30T17:49:10.666Z,14
2018-08-30T17:54:14.101Z,14
2018-08-30T17:59:15.674Z,16
2018-08-30T18:04:18.154Z,14
2018-08-30T18:09:20.516Z,15
2018-08-30T18:14:23.042Z,14
2018-08-30T18:19:25.439Z,14
2018-08-30T18:24:28.063Z,13
2018-08-30T18:29:30.404Z,15
2018-08-30T18:34:32.972Z,13
2018-08-30T18:39:35.549Z,13
2018-08-30T18:44:37.714Z,14
2018-08-30T18:49:41.081Z,13
2018-08-30T18:54:42.630Z,12
2018-08-30T18:59:45.207Z,12
2018-08-30T19:04:52.972Z,13
2018-08-30T19:09:50.246Z,13
2018-08-30T19:14:54.297Z,12
2018-08-30T19:19:55.307Z,11
2018-08-30T19:24:57.415Z,11
2018-08-30T19:29:59.826Z,12
2018-08-30T19:35:02.349Z,10
2018-08-30T19:40:04.794Z,10
2018-08-30T19:45:07.474Z,10
2018-08-30T19:50:09.726Z,12
2018-08-30T19:55:12.146Z,10
2018-08-30T20:00:14.600Z,11
2018-08-30T20:05:17.031Z,10
2018-08-30T20:10:19.895Z,10
2018-08-30T20:15:22.015Z,10
2018-08-30T20:20:24.786Z,11
2018-08-30T20:25:26.885Z,9
2018-08-30T20:30:29.451Z,11
2018-08-30T20:35:31.838Z,10
2018-08-30T20:40:34.251Z,12
2018-08-30T20:45:36.794Z,11
2018-08-30T20:50:39.165Z,11
2018-08-30T20:55:41.623Z,10
2018-08-30T21:00:44.228Z,13
2018-08-30T21:05:46.815Z,16
2018-08-30T21:10:49.002Z,15
2018-08-30T21:15:51.495Z,15
2018-08-30T21:20:54.024Z,16
2018-08-30T21:25:56.378Z,13
2018-08-30T21:30:58.904Z,11
2018-08-30T21:36:01.307Z,12
2018-08-30T21:41:03.820Z,12
2018-08-30T21:46:06.218Z,12
2018-08-30T21:51:08.654Z,12
2018-08-30T21:56:11.169Z,12
2018-08-30T22:01:13.567Z,12
2018-08-30T22:06:16.180Z,13
2018-08-30T22:11:18.523Z,12
2018-08-30T22:16:21.188Z,14
2018-08-30T22:21:23.403Z,15
2018-08-30T22:26:26.098Z,15
2018-08-30T22:31:28.397Z,15
2018-08-30T22:36:31.135Z,16
2018-08-30T22:41:33.321Z,16
2018-08-30T22:46:36.101Z,17
2018-08-30T22:51:38.288Z,17
2018-08-30T22:56:40.715Z,19
2018-08-30T23:01:43.499Z,17
2018-08-30T23:06:45.737Z,19
2018-08-30T23:11:47.994Z,18
2018-08-30T23:16:50.489Z,19
2018-08-30T23:21:52.924Z,18
2018-08-30T23:26:55.383Z,19
2018-08-30T23:31:57.816Z,18
2018-08-30T23:37:00.364Z,17
2018-08-30T23:42:03.175Z,16
2018-08-30T23:47:05.226Z,16
2018-08-30T23:52:07.668Z,13
2018-08-30T23:57:10.118Z,14
